^^
Saratoga-Weather Station Historical Data
Daily Summary for May 15, 2020 Units:  English    Metric   Both
Daily Weekly Monthly Yearly Custom
  High: Low: Average:
Temperature: 47.5 °F 46 °F 46.9 °F
Dew Point: 43.5 °F 42.6 °F 43 °F
Humidity: 90% 84% 86%
Wind Speed: 4mph 0mph 0.9mph
Wind Gust: 9mph - -
Wind- - South
Pressure: 30 in 30 in -
Precipitation: 0 in    
Historical Graphs
 
 
Tabular Data for May 15, 2020
Time Temperature Dew Point Pressure Wind Wind Speed Wind Gust Humidity Rainfall Rate (Hourly) solar
00:01 47.5 °F 43.2 °F 30 in ENE 0.9 mph 9 mph 85% 0 in 0 W/m2
00:06 47.3 °F 42.8 °F 30 in East 4 mph 4 mph 84% 0 in 0 W/m2
00:11 47.3 °F 42.8 °F 30 in Calm   9 mph 84% 0 in 0 W/m2
00:16 47.3 °F 42.8 °F 30 in Calm   1 mph 84% 0 in 0 W/m2
00:21 47.3 °F 43 °F 30 in NNE 2 mph 3 mph 85% 0 in 0 W/m2
00:26 47.1 °F 42.6 °F 30 in Calm   3 mph 84% 0 in 0 W/m2
00:31 47.3 °F 42.8 °F 30 in Calm   4 mph 84% 0 in 0 W/m2
00:36 47.3 °F 43 °F 30 in NW 2 mph 3 mph 85% 0 in 0 W/m2
00:41 47.1 °F 42.8 °F 30 in Calm   2 mph 85% 0 in 0 W/m2
00:46 47.1 °F 42.8 °F 30 in Calm   2 mph 85% 0 in 0 W/m2
00:51 47.1 °F 42.8 °F 30 in NE 2.9 mph 6 mph 85% 0 in 0 W/m2
00:56 47.1 °F 42.8 °F 30 in Calm   2 mph 85% 0 in 0 W/m2
01:01 47.1 °F 42.8 °F 30 in NNE 2 mph 5 mph 85% 0 in 0 W/m2
01:06 47.1 °F 42.8 °F 30 in NNW 2 mph 3 mph 85% 0 in 0 W/m2
01:11 47.1 °F 43.2 °F 30 in Calm     86% 0 in 0 W/m2
01:16 47.1 °F 43.2 °F 30 in Calm   3 mph 86% 0 in 0 W/m2
01:21 47.1 °F 42.8 °F 30 in SE 0.9 mph 4 mph 85% 0 in 0 W/m2
01:26 47.1 °F 43.2 °F 30 in NNW 0.9 mph 3 mph 86% 0 in 0 W/m2
01:31 46.9 °F 43 °F 30 in Calm   1 mph 86% 0 in 0 W/m2
01:36 46.9 °F 43 °F 30 in NE 0.9 mph 3 mph 86% 0 in 0 W/m2
01:41 46.9 °F 43 °F 30 in NW 2 mph 5 mph 86% 0 in 0 W/m2
01:46 46.9 °F 43 °F 30 in NE 2.9 mph 4 mph 86% 0 in 0 W/m2
01:52 46.9 °F 43.3 °F 30 in Calm   1 mph 87% 0 in 0 W/m2
01:57 46.8 °F 43.2 °F 30 in Calm   2 mph 87% 0 in 0 W/m2
02:02 46.8 °F 43.2 °F 30 in Calm   6 mph 87% 0 in 0 W/m2
02:07 46.8 °F 43.3 °F 30 in Calm   7 mph 88% 0 in 0 W/m2
02:12 46.6 °F 43.2 °F 30 in Calm   3 mph 88% 0 in 0 W/m2
02:17 46.6 °F 43.2 °F 30 in WNW 0.9 mph 5 mph 88% 0 in 0 W/m2
02:22 46.4 °F 43.3 °F 30 in NW 2 mph 4 mph 89% 0 in 0 W/m2
02:27 46.2 °F 43.2 °F 30 in Calm   1 mph 89% 0 in 0 W/m2
02:32 46.2 °F 43.5 °F 30 in NW 2 mph 3 mph 90% 0 in 0 W/m2
02:37 46 °F 43.3 °F 30 in WNW 0.9 mph 3 mph 90% 0 in 0 W/m2
Juneau County Weather
Compliments of Weather Underground - 2 mb